createdAt,value
2022-09-01T00:01:42.106Z,44.65
2022-09-01T00:06:43.675Z,44.52
2022-09-01T00:11:48.815Z,44.42
2022-09-01T00:16:52.298Z,44.37
2022-09-01T00:21:54.443Z,44.28
2022-09-01T00:26:56.067Z,43.89
2022-09-01T00:31:58.100Z,44.06
2022-09-01T00:36:59.937Z,43.99
2022-09-01T00:42:02.026Z,44.01
2022-09-01T00:47:03.458Z,44.26
2022-09-01T00:52:14.196Z,43.97
2022-09-01T00:57:15.668Z,44.13
2022-09-01T01:02:17.161Z,44.06
2022-09-01T01:07:20.088Z,44.24
2022-09-01T01:12:21.537Z,43.88
2022-09-01T01:17:23.124Z,43.77
2022-09-01T01:23:15.857Z,43.67
2022-09-01T01:28:20.078Z,43.88
2022-09-01T01:33:24.372Z,44.21
2022-09-01T01:38:27.409Z,44.03
2022-09-01T01:43:28.980Z,43.71
2022-09-01T01:48:34.398Z,43.99
2022-09-01T01:53:35.997Z,43.93
2022-09-01T01:58:37.393Z,43.99
2022-09-01T02:03:38.983Z,44.00
2022-09-01T02:08:41.033Z,43.68
2022-09-01T02:13:42.445Z,43.53
2022-09-01T02:18:47.934Z,43.51
2022-09-01T02:23:57.386Z,43.43
2022-09-01T02:29:04.423Z,43.68
2022-09-01T02:34:10.509Z,43.35
2022-09-01T02:39:11.916Z,43.71
2022-09-01T02:44:14.682Z,43.35
2022-09-01T02:49:28.502Z,43.04
2022-09-01T02:54:31.637Z,43.08
2022-09-01T02:59:34.805Z,43.41
2022-09-01T03:04:36.476Z,43.33
2022-09-01T03:09:38.849Z,43.25
2022-09-01T03:14:40.296Z,43.48
2022-09-01T03:19:44.348Z,43.31
2022-09-01T03:24:45.873Z,43.20
2022-09-01T03:29:47.317Z,43.32
2022-09-01T03:34:48.745Z,43.03
2022-09-01T03:39:50.319Z,43.11
2022-09-01T03:44:53.237Z,42.91
2022-09-01T03:49:54.925Z,43.06
2022-09-01T03:54:59.389Z,43.15
2022-09-01T04:00:00.797Z,42.63
2022-09-01T04:05:06.406Z,43.50
2022-09-01T04:10:11.445Z,43.52
2022-09-01T04:15:13.881Z,43.54
2022-09-01T04:20:20.922Z,43.17
2022-09-01T04:25:25.108Z,43.29
2022-09-01T04:30:29.324Z,43.49
2022-09-01T04:35:32.879Z,43.60
2022-09-01T04:40:39.530Z,43.38
2022-09-01T04:45:42.935Z,43.16
2022-09-01T04:50:44.883Z,43.32
2022-09-01T04:55:47.013Z,43.34
2022-09-01T05:00:55.760Z,43.31
2022-09-01T05:05:58.249Z,43.26
2022-09-01T05:10:59.664Z,43.31
2022-09-01T05:16:03.457Z,43.25
2022-09-01T05:21:09.661Z,43.07
2022-09-01T05:26:19.828Z,43.24
2022-09-01T05:31:22.481Z,43.06
2022-09-01T05:36:24.652Z,43.01
2022-09-01T05:41:26.258Z,42.90
2022-09-01T05:46:28.110Z,43.02
2022-09-01T05:51:44.523Z,43.18
2022-09-01T05:56:48.816Z,43.05
2022-09-01T06:01:50.895Z,43.08
2022-09-01T06:07:10.302Z,43.25
2022-09-01T06:12:18.206Z,43.19
2022-09-01T06:17:24.575Z,43.16
2022-09-01T06:22:28.037Z,42.59
2022-09-01T06:27:29.615Z,42.15
2022-09-01T06:32:33.612Z,42.13
2022-09-01T06:37:35.123Z,41.60
2022-09-01T06:42:37.713Z,41.47
2022-09-01T06:47:39.248Z,41.49
2022-09-01T06:58:07.089Z,41.14
2022-09-01T07:03:09.669Z,41.17
2022-09-01T07:08:17.692Z,41.19
2022-09-01T07:13:23.992Z,40.86
2022-09-01T07:18:26.025Z,40.73
2022-09-01T07:23:46.302Z,41.02
2022-09-01T07:28:50.513Z,40.93
2022-09-01T07:42:30.688Z,40.54
2022-09-01T07:44:38.277Z,40.08
2022-09-01T07:50:11.336Z,40.17
2022-09-01T07:55:02.776Z,40.35
2022-09-01T08:00:05.253Z,40.02
2022-09-01T08:05:08.878Z,40.11
2022-09-01T08:10:10.390Z,39.72
2022-09-01T08:15:14.076Z,39.88
2022-09-01T08:20:37.548Z,40.10
2022-09-01T08:25:39.389Z,40.06
2022-09-01T08:30:41.697Z,39.97
2022-09-01T08:35:54.144Z,40.47
2022-09-01T08:40:57.495Z,40.59
2022-09-01T08:46:04.676Z,40.87
2022-09-01T08:51:20.015Z,40.20
2022-09-01T08:56:22.197Z,40.16
2022-09-01T09:01:55.225Z,39.95
2022-09-01T09:07:08.217Z,39.66
2022-09-01T09:12:27.898Z,39.83
2022-09-01T09:17:34.400Z,39.83
2022-09-01T09:22:35.832Z,40.03
2022-09-01T09:27:39.531Z,40.14
2022-09-01T09:38:28.415Z,40.33
2022-09-01T09:43:31.941Z,40.11
2022-09-01T09:48:34.105Z,40.79
2022-09-01T09:53:35.768Z,40.55
2022-09-01T09:58:39.397Z,40.59
2022-09-01T10:03:43.892Z,40.38
2022-09-01T10:08:45.732Z,40.28
2022-09-01T10:13:47.192Z,40.43
2022-09-01T10:18:53.019Z,39.92
2022-09-01T10:23:54.729Z,39.95
2022-09-01T10:29:15.841Z,40.11
2022-09-01T10:34:19.345Z,40.74
2022-09-01T10:39:21.978Z,41.06
2022-09-01T10:44:36.497Z,41.16
2022-09-01T10:49:37.756Z,40.45
2022-09-01T10:54:40.331Z,40.71
2022-09-01T10:59:56.435Z,40.33
2022-09-01T11:04:58.462Z,40.55
2022-09-01T11:10:37.263Z,39.95
2022-09-01T11:15:42.817Z,39.76
2022-09-01T11:20:46.180Z,39.53
2022-09-01T11:31:30.867Z,39.52
2022-09-01T11:36:37.209Z,39.36
2022-09-01T11:41:55.843Z,39.08
2022-09-01T11:47:14.199Z,38.92
2022-09-01T11:52:16.920Z,38.35
2022-09-01T11:57:22.413Z,38.18
2022-09-01T12:02:29.546Z,37.62
2022-09-01T12:07:38.373Z,37.91
2022-09-01T12:12:39.887Z,38.33
2022-09-01T12:17:41.316Z,37.81
2022-09-01T12:22:42.785Z,37.96
2022-09-01T12:27:44.181Z,38.87
2022-09-01T12:32:45.649Z,38.62
2022-09-01T12:37:47.225Z,38.22
2022-09-01T12:42:52.252Z,38.74
2022-09-01T12:47:53.669Z,38.75
2022-09-01T12:52:58.105Z,38.40
2022-09-01T12:58:03.749Z,38.39
2022-09-01T13:03:13.984Z,37.43
2022-09-01T13:08:19.956Z,36.71
2022-09-01T13:13:23.939Z,37.23
2022-09-01T13:18:25.689Z,36.40
2022-09-01T13:23:27.196Z,36.32
2022-09-01T13:28:28.662Z,36.25
2022-09-01T13:33:30.835Z,36.39
2022-09-01T13:38:32.813Z,36.30
2022-09-01T13:43:34.367Z,36.31
2022-09-01T13:53:57.269Z,36.50
2022-09-01T13:58:58.668Z,37.00
2022-09-01T14:04:00.802Z,36.42
2022-09-01T14:09:02.340Z,35.51
2022-09-01T14:14:03.749Z,35.43
2022-09-01T14:19:05.198Z,35.00
2022-09-01T14:29:13.224Z,34.90
2022-09-01T14:34:15.373Z,35.33
2022-09-01T14:39:16.793Z,35.02
2022-09-01T14:44:18.221Z,34.95
2022-09-01T14:49:22.548Z,35.06
2022-09-01T14:54:24.301Z,35.23
2022-09-01T14:59:25.713Z,34.80
2022-09-01T15:04:27.830Z,34.60
2022-09-01T15:09:29.348Z,35.20
2022-09-01T15:14:32.145Z,35.40
2022-09-01T15:19:33.566Z,36.20
2022-09-01T15:24:34.972Z,36.14
2022-09-01T15:29:44.730Z,36.93
2022-09-01T15:34:46.428Z,37.34
2022-09-01T15:39:50.484Z,37.35
2022-09-01T15:44:52.205Z,37.08
2022-09-01T15:49:53.604Z,36.97
2022-09-01T15:54:55.144Z,37.21
2022-09-01T15:59:57.209Z,37.43
2022-09-01T16:04:58.634Z,37.81
2022-09-01T16:10:01.139Z,38.14
2022-09-01T16:15:03.492Z,38.30
2022-09-01T16:20:11.285Z,38.58
2022-09-01T16:25:19.026Z,38.79
2022-09-01T16:30:27.184Z,38.66
2022-09-01T16:35:45.333Z,38.53
2022-09-01T16:40:52.474Z,38.29
2022-09-01T16:45:53.804Z,38.57
2022-09-01T16:51:12.485Z,37.96
2022-09-01T16:56:23.497Z,38.05
2022-09-01T17:01:52.293Z,38.03
2022-09-01T17:07:18.516Z,38.15
2022-09-01T17:12:41.133Z,37.86
2022-09-01T17:17:42.688Z,38.11
2022-09-01T17:22:50.614Z,38.46
2022-09-01T17:27:55.597Z,38.30
2022-09-01T17:32:56.938Z,38.24
2022-09-01T17:38:27.928Z,38.60
2022-09-01T17:44:00.167Z,38.61
2022-09-01T17:49:08.760Z,38.81
2022-09-01T17:54:28.401Z,38.57
2022-09-01T17:59:44.844Z,38.91
2022-09-01T18:05:08.293Z,39.24
2022-09-01T18:10:12.968Z,39.25
2022-09-01T18:15:16.891Z,39.73
2022-09-01T18:20:28.042Z,39.37
2022-09-01T18:25:39.668Z,39.57
2022-09-01T18:30:55.449Z,39.68
2022-09-01T18:36:12.852Z,40.02
2022-09-01T18:41:51.764Z,40.08
2022-09-01T18:46:58.304Z,40.20
2022-09-01T18:52:18.310Z,39.99
2022-09-01T18:57:21.111Z,40.32
2022-09-01T19:02:48.518Z,40.24
2022-09-01T19:07:55.948Z,40.63
2022-09-01T19:13:18.894Z,40.55
2022-09-01T19:18:41.278Z,40.52
2022-09-01T19:23:49.691Z,40.40
2022-09-01T19:28:53.893Z,40.22
2022-09-01T19:34:10.469Z,40.69
2022-09-01T19:39:20.980Z,40.64
2022-09-01T19:44:42.613Z,40.88
2022-09-01T19:49:54.639Z,40.89
2022-09-01T19:55:01.386Z,40.90
2022-09-01T20:00:11.157Z,40.93
2022-09-01T20:05:33.612Z,40.77
2022-09-01T20:10:42.330Z,41.01
2022-09-01T20:16:01.307Z,41.18
2022-09-01T20:21:05.941Z,41.09
2022-09-01T20:26:18.891Z,41.08
2022-09-01T20:31:25.390Z,41.25
2022-09-01T20:36:43.501Z,41.05
2022-09-01T20:42:02.378Z,41.33
2022-09-01T20:47:05.271Z,40.98
2022-09-01T20:52:26.580Z,40.54
2022-09-01T20:57:40.260Z,41.15
2022-09-01T21:03:12.088Z,40.97
2022-09-01T21:08:50.517Z,41.26
2022-09-01T21:14:13.983Z,41.28
2022-09-01T21:19:37.334Z,41.28
2022-09-01T21:24:39.032Z,41.28
2022-09-01T21:29:51.288Z,40.92
2022-09-01T21:34:53.938Z,41.04
2022-09-01T21:39:55.571Z,41.21
2022-09-01T21:44:58.088Z,41.03
2022-09-01T21:49:59.512Z,41.47
2022-09-01T21:55:00.909Z,41.39
2022-09-01T22:00:10.980Z,41.17
2022-09-01T22:05:12.492Z,40.77
2022-09-01T22:10:17.790Z,41.04
2022-09-01T22:15:21.328Z,41.19
2022-09-01T22:20:23.320Z,41.22
2022-09-01T22:25:24.745Z,41.05
2022-09-01T22:30:26.370Z,40.91
2022-09-01T22:35:27.988Z,41.35
2022-09-01T22:40:29.449Z,41.26
2022-09-01T22:45:30.947Z,41.19
2022-09-01T22:50:32.500Z,41.13
2022-09-01T22:55:41.009Z,40.80
2022-09-01T23:00:49.961Z,40.99
2022-09-01T23:06:02.757Z,41.10
2022-09-01T23:11:04.188Z,41.19
2022-09-01T23:16:06.437Z,41.28
2022-09-01T23:21:10.670Z,40.94
2022-09-01T23:26:12.741Z,41.09
2022-09-01T23:31:16.645Z,41.05
2022-09-01T23:36:19.745Z,41.19
2022-09-01T23:41:23.689Z,41.14
2022-09-01T23:46:28.004Z,41.11
2022-09-01T23:51:29.456Z,40.71
2022-09-01T23:56:30.916Z,41.01
